Time;durP1;ratioP1;P1;durP2;ratioP2;P2;SDS_P1;SDS_P2;PMS_P1;PMS_P2;Temp;Humidity;BMP_temperature;BMP_pressure;BME280_temperature;BME280_humidity;BME280_pressure;Samples;Min_cycle;Max_cycle;Signal;HPM_P1;HPM_P2
2022/01/17 00:01:11;;;;;;;;;;;2.20;99.90;;;;;;5080594;28;19988;-77
2022/01/17 00:03:39;;;;;;;;;;;2.20;99.90;;;;;;5075605;28;19925;-78
2022/01/17 00:06:05;;;;;;;;;;;2.20;99.90;;;;;;5105715;28;20007;-78
2022/01/17 00:08:33;;;;;;;;;;;2.20;99.90;;;;;;5073542;28;19935;-78
2022/01/17 00:11:00;;;;;;;;;;;2.20;99.90;;;;;;5075727;28;20453;-78
2022/01/17 00:13:28;;;;;;;;;;;2.20;99.90;;;;;;5077346;28;19924;-78
2022/01/17 00:21:05;;;;;;;;;;;2.20;99.90;;;;;;5078297;28;19924;-77
2022/01/17 00:23:32;;;;;;;;;;;2.20;99.90;;;;;;5078431;28;20532;-78
2022/01/17 00:25:59;;;;;;;;;;;2.20;99.90;;;;;;5099936;27;19960;-77
2022/01/17 00:28:25;;;;;;;;;;;2.20;99.90;;;;;;5076447;28;19928;-78
2022/01/17 00:30:52;;;;;;;;;;;2.10;99.90;;;;;;5087776;28;19932;-78
2022/01/17 00:33:19;;;;;;;;;;;2.20;99.90;;;;;;5072503;28;19928;-78
2022/01/17 00:35:45;;;;;;;;;;;2.10;99.90;;;;;;5086044;28;20007;-78
2022/01/17 00:38:12;;;;;;;;;;;2.20;99.90;;;;;;5073497;28;19932;-77
2022/01/17 00:40:41;;;;;;;;;;;2.20;99.90;;;;;;5077989;28;20021;-78
2022/01/17 00:43:08;;;;;;;;;;;2.20;99.90;;;;;;5082092;28;19924;-78
2022/01/17 00:45:37;;;;;;;;;;;2.20;99.90;;;;;;5073634;28;19925;-78
2022/01/17 00:48:04;;;;;;;;;;;2.10;99.90;;;;;;5072476;28;19932;-78
2022/01/17 00:50:31;;;;;;;;;;;2.20;99.90;;;;;;5078044;28;20321;-77
2022/01/17 00:53:03;;;;;;;;;;;2.20;99.90;;;;;;5080502;28;19970;-77
2022/01/17 00:55:30;;;;;;;;;;;2.20;99.90;;;;;;5080922;28;20003;-77
2022/01/17 00:57:57;;;;;;;;;;;2.20;99.90;;;;;;5076188;28;19924;-78
2022/01/17 01:00:23;;;;;;;;;;;2.20;99.90;;;;;;5078978;28;19974;-77
2022/01/17 01:02:50;;;;;;;;;;;2.20;99.90;;;;;;5073827;28;19924;-78
2022/01/17 01:05:17;;;;;;;;;;;2.20;99.90;;;;;;5078490;28;19981;-78
2022/01/17 01:07:45;;;;;;;;;;;2.20;99.90;;;;;;5077832;28;20386;-78
2022/01/17 01:10:12;;;;;;;;;;;2.20;99.90;;;;;;5076717;28;19930;-78
2022/01/17 01:12:43;;;;;;;;;;;2.20;99.90;;;;;;5082906;28;20011;-78
2022/01/17 01:15:14;;;;;;;;;;;2.20;99.90;;;;;;5083680;28;19931;-78
2022/01/17 01:17:53;;;;;;;;;;;2.30;99.90;;;;;;5080200;28;20035;-78
2022/01/17 01:28:34;;;;;;;;;;;2.20;99.90;;;;;;5090268;28;20007;-78
2022/01/17 01:31:04;;;;;;;;;;;2.20;99.90;;;;;;5077164;28;20007;-78
2022/01/17 01:33:35;;;;;;;;;;;2.20;99.90;;;;;;5076539;28;19924;-78
2022/01/17 01:36:11;;;;;;;;;;;2.20;99.90;;;;;;5083128;28;20007;-78
2022/01/17 01:38:40;;;;;;;;;;;2.20;99.90;;;;;;5077256;28;20365;-77
2022/01/17 01:41:07;;;;;;;;;;;2.20;99.90;;;;;;5072006;28;20377;-76
2022/01/17 01:43:34;;;;;;;;;;;2.20;99.90;;;;;;5073245;28;19928;-76
2022/01/17 01:46:02;;;;;;;;;;;2.20;99.90;;;;;;5072646;28;19924;-77
2022/01/17 01:48:30;;;;;;;;;;;2.20;99.90;;;;;;5080044;28;19933;-77
2022/01/17 01:50:57;;;;;;;;;;;2.20;99.90;;;;;;5077209;28;20435;-77
2022/01/17 01:53:25;;;;;;;;;;;2.30;99.90;;;;;;5082154;28;20001;-77
2022/01/17 01:55:53;;;;;;;;;;;2.30;99.90;;;;;;5078142;28;20392;-77
2022/01/17 01:58:21;;;;;;;;;;;2.30;99.90;;;;;;5078986;28;20461;-77
2022/01/17 02:00:48;;;;;;;;;;;2.20;99.90;;;;;;5082020;28;20311;-77
2022/01/17 02:03:15;;;;;;;;;;;2.20;99.90;;;;;;5082162;28;20333;-77
2022/01/17 02:05:43;;;;;;;;;;;2.30;99.90;;;;;;5076485;28;19924;-77
2022/01/17 02:08:11;;;;;;;;;;;2.30;99.90;;;;;;5072860;28;19960;-77
2022/01/17 02:10:38;;;;;;;;;;;2.20;99.90;;;;;;5084913;28;19924;-78
2022/01/17 02:13:05;;;;;;;;;;;2.30;99.90;;;;;;5088409;28;19931;-78
2022/01/17 02:15:32;;;;;;;;;;;2.30;99.90;;;;;;5080272;28;19930;-78
2022/01/17 02:17:59;;;;;;;;;;;2.30;99.90;;;;;;5089911;28;19924;-78
2022/01/17 02:20:41;;;;;;;;;;;2.20;99.90;;;;;;5088241;28;20044;-78
2022/01/17 02:23:08;;;;;;;;;;;2.20;99.90;;;;;;5088440;28;19924;-78
2022/01/17 02:25:35;;;;;;;;;;;2.20;99.90;;;;;;5081424;28;20015;-78
2022/01/17 02:28:02;;;;;;;;;;;2.20;99.90;;;;;;5084005;28;19924;-78
2022/01/17 02:30:32;;;;;;;;;;;2.20;99.90;;;;;;5080368;28;19983;-78
2022/01/17 02:33:02;;;;;;;;;;;2.20;99.90;;;;;;5093192;28;19924;-78
2022/01/17 02:35:29;;;;;;;;;;;2.20;99.90;;;;;;5084288;28;19931;-78
2022/01/17 02:37:56;;;;;;;;;;;2.10;99.90;;;;;;5083309;28;19934;-78
2022/01/17 02:40:24;;;;;;;;;;;2.00;99.90;;;;;;5090014;28;19982;-78
2022/01/17 02:42:56;;;;;;;;;;;2.00;99.90;;;;;;5100419;28;20031;-79
2022/01/17 02:45:33;;;;;;;;;;;1.90;99.90;;;;;;5077301;28;19972;-77
2022/01/17 02:48:01;;;;;;;;;;;1.90;99.90;;;;;;5084564;28;19931;-77
2022/01/17 02:50:28;;;;;;;;;;;1.80;99.90;;;;;;5082657;28;19924;-77
2022/01/17 02:53:02;;;;;;;;;;;1.80;99.90;;;;;;5075925;28;19939;-78
2022/01/17 02:55:29;;;;;;;;;;;1.70;99.90;;;;;;5092481;28;19930;-78
2022/01/17 02:57:56;;;;;;;;;;;1.70;99.90;;;;;;5093095;28;20015;-78
2022/01/17 03:00:24;;;;;;;;;;;1.70;99.90;;;;;;5075391;28;19958;-79
2022/01/17 03:02:50;;;;;;;;;;;1.60;99.90;;;;;;5083726;28;20010;-78
2022/01/17 03:05:18;;;;;;;;;;;1.50;99.90;;;;;;5095305;28;20387;-78
2022/01/17 03:07:46;;;;;;;;;;;1.60;99.90;;;;;;5083793;28;20313;-78
2022/01/17 03:10:39;;;;;;;;;;;1.60;99.90;;;;;;5083200;28;20582;-78
2022/01/17 03:13:02;;;;;;;;;;;1.60;99.90;;;;;;5075750;28;19974;-78
2022/01/17 03:15:29;;;;;;;;;;;1.70;99.90;;;;;;5075692;28;19931;-78
2022/01/17 03:17:56;;;;;;;;;;;1.70;99.90;;;;;;5076047;28;20027;-78
2022/01/17 03:20:23;;;;;;;;;;;1.80;99.90;;;;;;5079336;28;19924;-78
2022/01/17 03:22:50;;;;;;;;;;;1.80;99.90;;;;;;5078224;28;20329;-78
2022/01/17 03:25:16;;;;;;;;;;;1.90;99.90;;;;;;5072100;28;20024;-79
2022/01/17 03:27:43;;;;;;;;;;;2.00;99.90;;;;;;5095487;28;20014;-78
2022/01/17 03:30:10;;;;;;;;;;;2.00;99.90;;;;;;5074619;28;20050;-78
2022/01/17 03:32:36;;;;;;;;;;;2.00;99.90;;;;;;5087470;28;19924;-78
2022/01/17 03:35:03;;;;;;;;;;;2.00;99.90;;;;;;5074671;28;19928;-78
2022/01/17 03:37:30;;;;;;;;;;;2.10;99.90;;;;;;5088342;28;19924;-78
2022/01/17 03:39:57;;;;;;;;;;;2.20;99.90;;;;;;5092585;28;19950;-78
2022/01/17 03:42:24;;;;;;;;;;;2.20;99.90;;;;;;5091658;28;19928;-78
2022/01/17 03:44:51;;;;;;;;;;;2.30;99.90;;;;;;5089020;28;19931;-78
2022/01/17 03:47:17;;;;;;;;;;;2.30;99.90;;;;;;5086695;28;20015;-78
2022/01/17 03:49:44;;;;;;;;;;;2.30;99.90;;;;;;5083213;28;20014;-79
2022/01/17 03:52:11;;;;;;;;;;;2.30;99.90;;;;;;5087178;28;19924;-78
2022/01/17 03:54:37;;;;;;;;;;;2.30;99.90;;;;;;5082703;28;20015;-78
2022/01/17 03:57:04;;;;;;;;;;;2.30;99.90;;;;;;5077362;28;19931;-78
2022/01/17 03:59:31;;;;;;;;;;;2.20;99.90;;;;;;5082239;28;19963;-78
2022/01/17 04:01:58;;;;;;;;;;;2.30;99.90;;;;;;5088444;28;20387;-79
2022/01/17 04:04:24;;;;;;;;;;;2.30;99.90;;;;;;5079299;28;19934;-78
2022/01/17 04:06:51;;;;;;;;;;;2.30;99.90;;;;;;5088018;28;19925;-79
2022/01/17 04:09:18;;;;;;;;;;;2.20;99.90;;;;;;5079739;28;20390;-79
2022/01/17 04:11:44;;;;;;;;;;;2.20;99.90;;;;;;5075910;28;19925;-79
2022/01/17 04:14:11;;;;;;;;;;;2.20;99.90;;;;;;5076395;28;19925;-79
2022/01/17 04:16:38;;;;;;;;;;;2.20;99.90;;;;;;5077220;28;19924;-78
2022/01/17 04:19:05;;;;;;;;;;;2.20;99.90;;;;;;5074073;28;19966;-79
2022/01/17 04:21:35;;;;;;;;;;;2.20;99.90;;;;;;5082070;28;19924;-79
2022/01/17 04:24:02;;;;;;;;;;;2.10;99.90;;;;;;5076856;28;20015;-79
2022/01/17 04:26:28;;;;;;;;;;;2.10;99.90;;;;;;5093823;28;19923;-78
2022/01/17 04:28:55;;;;;;;;;;;2.00;99.90;;;;;;5090158;28;19932;-79
2022/01/17 04:31:22;;;;;;;;;;;1.90;99.90;;;;;;5079610;28;19950;-78
2022/01/17 04:33:48;;;;;;;;;;;1.90;99.90;;;;;;5084769;28;20046;-78
2022/01/17 04:36:15;;;;;;;;;;;1.90;99.90;;;;;;5073455;28;19931;-78
2022/01/17 04:38:42;;;;;;;;;;;1.90;99.90;;;;;;5089245;28;20003;-78
2022/01/17 04:41:16;;;;;;;;;;;2.00;99.90;;;;;;5088863;28;20023;-78
2022/01/17 04:46:10;;;;;;;;;;;2.20;99.90;;;;;;5072550;28;20287;-78
2022/01/17 04:48:37;;;;;;;;;;;2.20;99.90;;;;;;5084137;28;19932;-78
2022/01/17 04:51:04;;;;;;;;;;;2.30;99.90;;;;;;5079655;28;20003;-78
2022/01/17 04:53:31;;;;;;;;;;;2.30;99.90;;;;;;5099196;28;20006;-78
2022/01/17 04:55:58;;;;;;;;;;;2.30;99.90;;;;;;5081675;28;19924;-78
2022/01/17 04:58:25;;;;;;;;;;;2.30;99.90;;;;;;5080391;28;19971;-78
2022/01/17 05:00:52;;;;;;;;;;;2.30;99.90;;;;;;5086120;28;19947;-79
2022/01/17 05:03:20;;;;;;;;;;;2.30;99.90;;;;;;5074302;28;20349;-78
2022/01/17 05:05:52;;;;;;;;;;;2.30;99.90;;;;;;5084918;28;19924;-79
2022/01/17 05:08:18;;;;;;;;;;;2.20;99.90;;;;;;5089131;28;19924;-79
2022/01/17 05:10:54;;;;;;;;;;;2.20;99.90;;;;;;5077922;28;19930;-78
2022/01/17 05:13:26;;;;;;;;;;;2.10;99.90;;;;;;5084295;28;19924;-79
2022/01/17 05:16:06;;;;;;;;;;;2.10;99.90;;;;;;5072434;28;19985;-78
2022/01/17 05:21:03;;;;;;;;;;;2.10;99.90;;;;;;5090982;28;20445;-79
2022/01/17 05:23:30;;;;;;;;;;;2.10;99.90;;;;;;5092635;28;20470;-78
2022/01/17 05:25:57;;;;;;;;;;;2.00;99.90;;;;;;5063548;28;19924;-77
2022/01/17 05:28:24;;;;;;;;;;;2.00;99.90;;;;;;5081953;28;22402;-77
2022/01/17 05:30:50;;;;;;;;;;;2.00;99.90;;;;;;5080262;28;19928;-77
2022/01/17 05:33:17;;;;;;;;;;;2.00;99.90;;;;;;5075802;28;19928;-77
2022/01/17 05:35:44;;;;;;;;;;;2.00;99.90;;;;;;5082510;28;19935;-77
2022/01/17 05:38:11;;;;;;;;;;;2.00;99.90;;;;;;5078886;28;19974;-77
2022/01/17 05:40:38;;;;;;;;;;;1.90;99.90;;;;;;5085482;28;19924;-77
2022/01/17 05:43:04;;;;;;;;;;;1.80;99.90;;;;;;5053261;28;19959;-77
2022/01/17 05:45:35;;;;;;;;;;;1.70;99.90;;;;;;5089829;28;19930;-77
2022/01/17 05:48:03;;;;;;;;;;;1.70;99.90;;;;;;5094342;28;19950;-77
2022/01/17 05:50:29;;;;;;;;;;;1.80;99.90;;;;;;5077210;28;20585;-77
2022/01/17 05:52:56;;;;;;;;;;;1.80;99.90;;;;;;5084115;28;20333;-79
2022/01/17 05:55:23;;;;;;;;;;;1.90;99.90;;;;;;5074783;28;20026;-77
2022/01/17 05:57:49;;;;;;;;;;;1.90;99.90;;;;;;5094635;28;20449;-77
2022/01/17 06:00:17;;;;;;;;;;;1.90;99.90;;;;;;5076108;28;19924;-77
2022/01/17 06:02:44;;;;;;;;;;;1.90;99.90;;;;;;5082324;28;19980;-79
2022/01/17 06:05:12;;;;;;;;;;;1.80;99.90;;;;;;5082252;28;20028;-79
2022/01/17 06:07:39;;;;;;;;;;;1.60;99.90;;;;;;5080938;28;19924;-79
2022/01/17 06:10:06;;;;;;;;;;;1.50;99.90;;;;;;5088365;28;20037;-79
2022/01/17 06:12:32;;;;;;;;;;;1.40;99.90;;;;;;5085479;28;20018;-79
2022/01/17 06:14:59;;;;;;;;;;;1.40;99.90;;;;;;5086970;28;19924;-79
2022/01/17 06:17:26;;;;;;;;;;;1.50;99.90;;;;;;5086460;28;19951;-78
2022/01/17 06:19:52;;;;;;;;;;;1.50;99.90;;;;;;5092770;28;19989;-79
2022/01/17 06:22:19;;;;;;;;;;;1.60;99.90;;;;;;5079185;28;20073;-78
2022/01/17 06:24:47;;;;;;;;;;;1.60;99.90;;;;;;5085232;28;20011;-79
2022/01/17 06:27:14;;;;;;;;;;;1.70;99.90;;;;;;5079807;28;19925;-79
2022/01/17 06:29:41;;;;;;;;;;;1.70;99.90;;;;;;5052655;28;20020;-79
2022/01/17 06:32:07;;;;;;;;;;;1.80;99.90;;;;;;5106230;28;19930;-79
2022/01/17 06:34:53;;;;;;;;;;;1.80;99.90;;;;;;5084115;28;19950;-79
2022/01/17 06:37:19;;;;;;;;;;;1.90;99.90;;;;;;5091056;28;20625;-79
2022/01/17 06:39:49;;;;;;;;;;;1.90;99.90;;;;;;5073631;28;20713;-79
2022/01/17 06:42:16;;;;;;;;;;;1.90;99.90;;;;;;5091910;28;19928;-77
2022/01/17 06:44:43;;;;;;;;;;;2.00;99.90;;;;;;5088388;28;19924;-77
2022/01/17 06:47:10;;;;;;;;;;;2.00;99.90;;;;;;5078414;28;19928;-78
2022/01/17 06:49:37;;;;;;;;;;;2.00;99.90;;;;;;5084085;28;20015;-77
2022/01/17 06:52:03;;;;;;;;;;;2.00;99.90;;;;;;5085925;28;19931;-77
2022/01/17 06:54:30;;;;;;;;;;;2.10;99.90;;;;;;5057511;28;19928;-77
2022/01/17 06:56:57;;;;;;;;;;;2.10;99.90;;;;;;5078114;28;19929;-77
2022/01/17 06:59:24;;;;;;;;;;;2.20;99.90;;;;;;5087741;28;19977;-77
2022/01/17 07:01:51;;;;;;;;;;;2.30;99.90;;;;;;5083544;28;20010;-77
2022/01/17 07:04:17;;;;;;;;;;;2.30;99.90;;;;;;5074609;28;19935;-77
2022/01/17 07:06:44;;;;;;;;;;;2.30;99.90;;;;;;5075086;28;19950;-77
2022/01/17 07:09:15;;;;;;;;;;;2.30;99.90;;;;;;5080533;28;20011;-77
2022/01/17 07:11:41;;;;;;;;;;;2.30;99.90;;;;;;5076149;28;20345;-77
2022/01/17 07:14:09;;;;;;;;;;;2.30;99.90;;;;;;5083724;28;19924;-77
2022/01/17 07:16:36;;;;;;;;;;;2.20;99.90;;;;;;5083316;28;19924;-78
2022/01/17 07:19:03;;;;;;;;;;;2.30;99.90;;;;;;5097454;28;19932;-79
2022/01/17 07:21:29;;;;;;;;;;;2.30;99.90;;;;;;5085142;28;19925;-79
2022/01/17 07:23:56;;;;;;;;;;;2.30;99.90;;;;;;5093699;28;20409;-79
2022/01/17 07:26:23;;;;;;;;;;;2.30;99.90;;;;;;5084694;28;19946;-79
2022/01/17 07:28:50;;;;;;;;;;;2.30;99.90;;;;;;5085678;28;19925;-79
2022/01/17 07:31:17;;;;;;;;;;;2.30;99.90;;;;;;5081862;28;19986;-79
2022/01/17 07:33:44;;;;;;;;;;;2.20;99.90;;;;;;5083558;28;19924;-79
2022/01/17 07:36:16;;;;;;;;;;;2.20;99.90;;;;;;5093747;28;20011;-79
2022/01/17 07:38:42;;;;;;;;;;;2.20;99.90;;;;;;5092981;28;19928;-77
2022/01/17 07:41:09;;;;;;;;;;;2.20;99.90;;;;;;5079384;28;19932;-77
2022/01/17 07:43:56;;;;;;;;;;;2.20;99.90;;;;;;5072344;28;19940;-79
2022/01/17 07:46:25;;;;;;;;;;;2.20;99.90;;;;;;5080259;28;19932;-79
2022/01/17 07:51:23;;;;;;;;;;;2.20;99.90;;;;;;5092007;28;19928;-79
2022/01/17 07:53:50;;;;;;;;;;;2.20;99.90;;;;;;5087565;28;19932;-77
2022/01/17 07:56:17;;;;;;;;;;;2.20;99.90;;;;;;5072464;28;19928;-76
2022/01/17 07:58:44;;;;;;;;;;;2.20;99.90;;;;;;5079327;28;19924;-79
2022/01/17 08:01:11;;;;;;;;;;;2.20;99.90;;;;;;5078068;28;20433;-77
2022/01/17 08:03:38;;;;;;;;;;;2.20;99.90;;;;;;5077244;28;19924;-78
2022/01/17 08:06:05;;;;;;;;;;;2.30;99.90;;;;;;5091265;28;19959;-76
2022/01/17 08:08:31;;;;;;;;;;;2.30;99.90;;;;;;5074935;28;19925;-77
2022/01/17 08:10:58;;;;;;;;;;;2.40;99.90;;;;;;5082824;28;20015;-77
2022/01/17 08:13:25;;;;;;;;;;;2.50;99.90;;;;;;5088133;28;20026;-78
2022/01/17 08:15:51;;;;;;;;;;;2.70;99.90;;;;;;5077698;28;20302;-78
2022/01/17 08:18:18;;;;;;;;;;;2.90;99.90;;;;;;5086405;28;19924;-80
2022/01/17 08:20:45;;;;;;;;;;;3.10;99.90;;;;;;5076139;28;19931;-80
2022/01/17 08:23:12;;;;;;;;;;;3.30;99.90;;;;;;5083453;28;19925;-80
2022/01/17 08:25:46;;;;;;;;;;;3.50;99.90;;;;;;5088427;28;20531;-80
2022/01/17 08:28:16;;;;;;;;;;;3.60;99.90;;;;;;5079070;28;19931;-80
2022/01/17 08:30:52;;;;;;;;;;;3.80;99.90;;;;;;4989052;28;19929;-74
2022/01/17 08:33:39;;;;;;;;;;;3.90;99.90;;;;;;4998095;28;20414;-74
2022/01/17 08:36:07;;;;;;;;;;;4.00;99.90;;;;;;4999363;28;19926;-74
2022/01/17 08:38:44;;;;;;;;;;;4.10;99.90;;;;;;4986313;28;19929;-74
2022/01/17 08:41:10;;;;;;;;;;;4.10;99.90;;;;;;4978157;28;20448;-74
2022/01/17 08:43:37;;;;;;;;;;;4.20;99.90;;;;;;5010245;28;19951;-73
2022/01/17 08:46:06;;;;;;;;;;;4.20;99.90;;;;;;5003693;28;19969;-74
2022/01/17 08:48:33;;;;;;;;;;;4.20;99.90;;;;;;5012905;28;19965;-74
2022/01/17 08:50:59;;;;;;;;;;;4.30;99.90;;;;;;4987458;28;19933;-74
2022/01/17 08:53:26;;;;;;;;;;;4.30;99.90;;;;;;4993294;28;19925;-74
2022/01/17 08:55:53;;;;;;;;;;;4.40;99.90;;;;;;4994441;28;19932;-74
2022/01/17 08:58:19;;;;;;;;;;;4.50;99.90;;;;;;4987251;28;19926;-74
2022/01/17 09:00:46;;;;;;;;;;;4.50;99.90;;;;;;4997670;28;21665;-74
2022/01/17 09:03:19;;;;;;;;;;;4.50;99.90;;;;;;4975237;28;19926;-74
2022/01/17 09:05:46;;;;;;;;;;;4.50;99.90;;;;;;5025918;28;19924;-73
2022/01/17 09:08:13;;;;;;;;;;;4.60;99.90;;;;;;5051834;28;20030;-74
2022/01/17 09:10:40;;;;;;;;;;;4.60;99.90;;;;;;5019553;28;20008;-74
2022/01/17 09:13:07;;;;;;;;;;;4.60;99.90;;;;;;4991353;28;20399;-74
2022/01/17 09:15:35;;;;;;;;;;;4.50;99.90;;;;;;5034569;28;19931;-74
2022/01/17 09:18:03;;;;;;;;;;;4.40;99.90;;;;;;5066032;28;19985;-74
2022/01/17 09:20:32;;;;;;;;;;;4.40;99.90;;;;;;5076008;28;19931;-74
2022/01/17 09:22:59;;;;;;;;;;;4.40;99.90;;;;;;5007438;28;19926;-74
2022/01/17 09:25:26;;;;;;;;;;;4.40;99.90;;;;;;5019275;28;19933;-74
2022/01/17 09:27:52;;;;;;;;;;;4.40;99.90;;;;;;4984484;28;19937;-74
2022/01/17 09:30:19;;;;;;;;;;;4.40;99.90;;;;;;5071604;28;19924;-74
2022/01/17 09:32:46;;;;;;;;;;;4.40;99.90;;;;;;4996301;28;19956;-74
2022/01/17 09:35:12;;;;;;;;;;;4.40;99.90;;;;;;4982493;28;20324;-74
2022/01/17 09:37:40;;;;;;;;;;;4.50;99.90;;;;;;4991388;28;20008;-74
2022/01/17 09:40:07;;;;;;;;;;;4.50;99.90;;;;;;5008839;28;19949;-73
2022/01/17 09:42:36;;;;;;;;;;;4.60;99.90;;;;;;5004741;28;20059;-74
2022/01/17 09:45:04;;;;;;;;;;;4.70;99.90;;;;;;4953413;28;19927;-74
2022/01/17 09:47:33;;;;;;;;;;;4.70;99.90;;;;;;4963564;28;19928;-74
2022/01/17 09:50:01;;;;;;;;;;;4.80;99.90;;;;;;4966432;28;19945;-74
2022/01/17 09:52:35;;;;;;;;;;;4.90;99.90;;;;;;4962627;28;20194;-74
2022/01/17 09:55:04;;;;;;;;;;;4.90;99.90;;;;;;4966085;28;19933;-74
2022/01/17 09:57:31;;;;;;;;;;;5.00;99.90;;;;;;4979216;28;19934;-74
2022/01/17 09:59:58;;;;;;;;;;;5.00;99.90;;;;;;4960100;28;19926;-74
2022/01/17 10:02:25;;;;;;;;;;;5.10;99.90;;;;;;4989027;28;19934;-74
2022/01/17 10:04:53;;;;;;;;;;;5.10;99.90;;;;;;4986023;28;19930;-74
2022/01/17 10:07:20;;;;;;;;;;;5.20;99.90;;;;;;4988137;28;20385;-74
2022/01/17 10:09:58;;;;;;;;;;;5.20;99.90;;;;;;4992641;28;19926;-74
2022/01/17 10:12:25;;;;;;;;;;;5.30;99.90;;;;;;4976549;28;19931;-74
2022/01/17 10:15:05;;;;;;;;;;;5.40;99.90;;;;;;5011197;28;19929;-73
2022/01/17 10:17:42;;;;;;;;;;;5.50;99.90;;;;;;4992931;28;20341;-74
2022/01/17 10:20:11;;;;;;;;;;;5.40;99.90;;;;;;4960162;28;19926;-76
2022/01/17 10:22:49;;;;;;;;;;;5.40;99.90;;;;;;4984511;28;19931;-74
2022/01/17 10:36:55;;;;;;;;;;;5.60;99.90;;;;;;4960813;28;19945;-75
2022/01/17 10:39:22;;;;;;;;;;;5.60;99.90;;;;;;5007448;28;20471;-75
2022/01/17 10:41:48;;;;;;;;;;;5.50;99.90;;;;;;4979294;28;20052;-75
2022/01/17 10:44:34;;;;;;;;;;;5.50;99.90;;;;;;4978885;28;19937;-75
2022/01/17 10:47:18;;;;;;;;;;;5.50;99.90;;;;;;4992524;28;20552;-75
2022/01/17 10:49:49;;;;;;;;;;;5.40;99.90;;;;;;5042220;28;19968;-75
2022/01/17 10:52:29;;;;;;;;;;;5.40;99.90;;;;;;5036715;28;20321;-75
2022/01/17 10:54:57;;;;;;;;;;;5.40;99.90;;;;;;4933835;28;19934;-75
2022/01/17 10:57:24;;;;;;;;;;;5.40;99.90;;;;;;4963218;28;19932;-75
2022/01/17 10:59:52;;;;;;;;;;;5.50;99.90;;;;;;5003148;28;20372;-75
2022/01/17 11:02:23;;;;;;;;;;;5.50;99.90;;;;;;4962278;28;19933;-75
2022/01/17 11:04:50;;;;;;;;;;;5.50;99.90;;;;;;4979296;28;20020;-75
2022/01/17 11:07:17;;;;;;;;;;;5.50;99.90;;;;;;4980524;28;19926;-75
2022/01/17 11:09:47;;;;;;;;;;;5.50;99.90;;;;;;4983858;28;20290;-75
2022/01/17 11:12:16;;;;;;;;;;;5.60;99.90;;;;;;4964657;28;19934;-76
2022/01/17 11:14:44;;;;;;;;;;;5.60;99.90;;;;;;4978845;28;19926;-75
2022/01/17 11:17:15;;;;;;;;;;;5.60;99.90;;;;;;4983702;28;20884;-75
2022/01/17 11:20:04;;;;;;;;;;;5.60;99.90;;;;;;4970230;28;19936;-75
2022/01/17 11:22:31;;;;;;;;;;;5.60;99.90;;;;;;4963268;28;19931;-75
2022/01/17 11:24:58;;;;;;;;;;;5.60;99.90;;;;;;5000339;28;19964;-75
2022/01/17 11:27:25;;;;;;;;;;;5.70;99.90;;;;;;4966551;28;20255;-76
2022/01/17 11:29:52;;;;;;;;;;;5.70;99.90;;;;;;4989122;28;20230;-76
2022/01/17 11:32:19;;;;;;;;;;;5.80;99.90;;;;;;4989891;28;19930;-75
2022/01/17 11:34:47;;;;;;;;;;;5.90;99.90;;;;;;4974312;28;20427;-73
2022/01/17 11:37:13;;;;;;;;;;;6.30;99.90;;;;;;4985135;28;19933;-74
2022/01/17 11:39:44;;;;;;;;;;;7.10;99.90;;;;;;4981808;28;20152;-74
2022/01/17 11:42:30;;;;;;;;;;;7.70;99.90;;;;;;4986963;28;20314;-73
2022/01/17 11:44:57;;;;;;;;;;;8.30;99.90;;;;;;5001181;28;19937;-74
2022/01/17 11:47:42;;;;;;;;;;;9.50;99.90;;;;;;4963606;28;19926;-75
2022/01/17 11:50:28;;;;;;;;;;;10.30;99.90;;;;;;4995133;28;19926;-75
2022/01/17 11:53:00;;;;;;;;;;;10.30;99.90;;;;;;4962602;28;19944;-75
2022/01/17 11:55:39;;;;;;;;;;;10.80;99.90;;;;;;4970685;28;19927;-75
2022/01/17 11:58:27;;;;;;;;;;;10.60;99.90;;;;;;4957247;28;20549;-73
2022/01/17 12:00:56;;;;;;;;;;;10.00;99.90;;;;;;4982974;28;19926;-73
2022/01/17 12:03:25;;;;;;;;;;;9.40;99.90;;;;;;5004195;28;19945;-74
2022/01/17 12:05:53;;;;;;;;;;;9.10;99.90;;;;;;4998199;28;20011;-75
2022/01/17 12:08:20;;;;;;;;;;;8.80;99.90;;;;;;4961518;28;20100;-74
2022/01/17 12:10:47;;;;;;;;;;;9.00;99.90;;;;;;4968942;28;20341;-73
2022/01/17 12:13:16;;;;;;;;;;;8.80;99.90;;;;;;4982716;28;20324;-74
2022/01/17 12:15:57;;;;;;;;;;;8.40;99.90;;;;;;4968938;28;19937;-75
2022/01/17 12:18:31;;;;;;;;;;;7.90;99.90;;;;;;5013525;28;19974;-75
2022/01/17 12:21:16;;;;;;;;;;;7.60;99.90;;;;;;4959402;28;19926;-75
2022/01/17 12:23:43;;;;;;;;;;;7.30;99.90;;;;;;4970836;28;19936;-75
2022/01/17 12:26:29;;;;;;;;;;;7.20;99.90;;;;;;4959053;28;19927;-76
2022/01/17 12:28:57;;;;;;;;;;;7.00;99.90;;;;;;4969031;28;20379;-76
2022/01/17 12:31:40;;;;;;;;;;;6.90;99.90;;;;;;4975851;28;19933;-74
2022/01/17 12:34:17;;;;;;;;;;;6.60;99.90;;;;;;4976756;28;20287;-74
2022/01/17 12:36:46;;;;;;;;;;;6.50;99.90;;;;;;4958166;28;19949;-74
2022/01/17 12:39:17;;;;;;;;;;;6.40;99.90;;;;;;4965959;28;19952;-74
2022/01/17 12:41:45;;;;;;;;;;;6.20;99.90;;;;;;5012126;28;19969;-74
2022/01/17 12:44:13;;;;;;;;;;;6.20;99.90;;;;;;4984847;28;20577;-74
2022/01/17 12:46:42;;;;;;;;;;;6.10;99.90;;;;;;4966104;28;20306;-74
2022/01/17 12:49:09;;;;;;;;;;;6.10;99.90;;;;;;5028601;28;19931;-77
2022/01/17 12:51:40;;;;;;;;;;;6.00;99.90;;;;;;5000788;28;20308;-77
2022/01/17 12:54:15;;;;;;;;;;;6.00;99.90;;;;;;5011559;28;19928;-75
2022/01/17 12:56:48;;;;;;;;;;;5.90;99.90;;;;;;4973025;28;20263;-75
2022/01/17 12:59:17;;;;;;;;;;;5.90;99.90;;;;;;5015980;28;19926;-75
2022/01/17 13:01:50;;;;;;;;;;;5.90;99.90;;;;;;4995624;28;19930;-76
2022/01/17 13:04:18;;;;;;;;;;;5.90;99.90;;;;;;4966017;28;19926;-75
2022/01/17 13:06:46;;;;;;;;;;;5.90;99.90;;;;;;4980687;28;19930;-76
2022/01/17 13:09:14;;;;;;;;;;;6.00;99.90;;;;;;5004477;28;20481;-75
2022/01/17 13:11:42;;;;;;;;;;;6.00;99.90;;;;;;4961433;28;19934;-76
2022/01/17 13:14:10;;;;;;;;;;;6.00;99.90;;;;;;4958393;28;20378;-76
2022/01/17 13:16:38;;;;;;;;;;;6.00;99.90;;;;;;4999602;28;20349;-76
2022/01/17 13:19:06;;;;;;;;;;;6.00;99.90;;;;;;5044712;28;19934;-76
2022/01/17 13:21:34;;;;;;;;;;;6.10;99.90;;;;;;5010198;28;20311;-76
2022/01/17 13:24:13;;;;;;;;;;;6.00;99.90;;;;;;5003443;28;19932;-76
2022/01/17 13:26:51;;;;;;;;;;;6.00;99.90;;;;;;4969651;28;20392;-76
2022/01/17 13:29:18;;;;;;;;;;;6.10;99.90;;;;;;4971149;28;19933;-73
2022/01/17 13:31:45;;;;;;;;;;;6.10;99.90;;;;;;4981611;28;20393;-73
2022/01/17 13:34:14;;;;;;;;;;;6.00;99.90;;;;;;4997612;28;19933;-73
2022/01/17 13:36:42;;;;;;;;;;;6.00;99.90;;;;;;4993894;28;20375;-73
2022/01/17 13:39:11;;;;;;;;;;;6.00;99.90;;;;;;5019660;28;19934;-73
2022/01/17 13:41:39;;;;;;;;;;;5.90;99.90;;;;;;5034059;28;19932;-76
2022/01/17 13:44:06;;;;;;;;;;;5.90;99.90;;;;;;4966984;28;20021;-76
2022/01/17 13:46:37;;;;;;;;;;;5.90;99.90;;;;;;4982749;28;20264;-76
2022/01/17 13:49:08;;;;;;;;;;;5.90;99.90;;;;;;5000571;28;20399;-76
2022/01/17 13:51:35;;;;;;;;;;;5.90;99.90;;;;;;5008308;28;19924;-76
2022/01/17 13:54:01;;;;;;;;;;;5.80;99.90;;;;;;5000825;28;19926;-76
2022/01/17 13:56:36;;;;;;;;;;;5.90;99.90;;;;;;4968171;28;19926;-76
2022/01/17 13:59:04;;;;;;;;;;;5.80;99.90;;;;;;4991459;28;19935;-76
2022/01/17 14:01:32;;;;;;;;;;;5.80;99.90;;;;;;4975497;28;20004;-76
2022/01/17 14:04:04;;;;;;;;;;;5.80;99.90;;;;;;5021591;28;19924;-76
2022/01/17 14:06:31;;;;;;;;;;;5.90;99.90;;;;;;5032562;28;19924;-76
2022/01/17 14:08:59;;;;;;;;;;;5.80;99.90;;;;;;5052500;28;20011;-76
2022/01/17 14:11:26;;;;;;;;;;;5.80;99.90;;;;;;4982500;28;19926;-76
2022/01/17 14:14:00;;;;;;;;;;;5.80;99.90;;;;;;4984050;28;20009;-76
2022/01/17 14:16:33;;;;;;;;;;;5.80;99.90;;;;;;4959001;28;19938;-76
2022/01/17 14:19:01;;;;;;;;;;;5.80;99.90;;;;;;4996978;28;19928;-76
2022/01/17 14:21:44;;;;;;;;;;;5.80;99.90;;;;;;5010441;28;19955;-76
2022/01/17 14:24:16;;;;;;;;;;;5.80;99.90;;;;;;5051726;28;20441;-75
2022/01/17 14:26:57;;;;;;;;;;;5.80;99.90;;;;;;5038713;28;19941;-75
2022/01/17 14:29:25;;;;;;;;;;;5.90;99.90;;;;;;5058337;28;19924;-75
2022/01/17 14:31:54;;;;;;;;;;;5.90;99.90;;;;;;5023908;28;20086;-75
2022/01/17 14:34:22;;;;;;;;;;;5.90;99.90;;;;;;5001939;28;20025;-75
2022/01/17 14:36:58;;;;;;;;;;;5.90;99.90;;;;;;4973924;28;19924;-75
2022/01/17 14:39:44;;;;;;;;;;;5.80;99.90;;;;;;5042017;28;19990;-76
2022/01/17 14:42:12;;;;;;;;;;;5.80;99.90;;;;;;5035950;28;19925;-75
2022/01/17 14:44:40;;;;;;;;;;;5.80;99.90;;;;;;4972051;28;19994;-75
2022/01/17 14:47:08;;;;;;;;;;;5.80;99.90;;;;;;5007546;28;19987;-76
2022/01/17 14:49:37;;;;;;;;;;;5.80;99.90;;;;;;4971377;28;19932;-75
2022/01/17 14:52:09;;;;;;;;;;;5.70;99.90;;;;;;5006265;28;19930;-76
2022/01/17 14:54:45;;;;;;;;;;;5.70;99.90;;;;;;5020580;28;19928;-75
2022/01/17 15:00:14;;;;;;;;;;;5.60;99.90;;;;;;4981018;28;20323;-76
2022/01/17 15:05:10;;;;;;;;;;;5.60;99.90;;;;;;4958269;28;19930;-75
2022/01/17 15:07:37;;;;;;;;;;;5.60;99.90;;;;;;4965376;28;20320;-75
2022/01/17 15:10:04;;;;;;;;;;;5.60;99.90;;;;;;4965003;28;20609;-75
2022/01/17 15:12:31;;;;;;;;;;;5.60;99.90;;;;;;4964156;28;20028;-75
2022/01/17 15:14:57;;;;;;;;;;;5.50;99.90;;;;;;4957574;28;19937;-75
2022/01/17 15:17:26;;;;;;;;;;;5.50;99.90;;;;;;4963330;28;20385;-76
2022/01/17 15:19:53;;;;;;;;;;;5.50;99.90;;;;;;4965164;28;20313;-76